Guttenberg, New Jersey
Current Conditions -  °F | °C
As of 5:11 PM on Sunday 21 Dec 2014 (Local Time) from KNYC Reporting Station
Overcast Overcast  
Wind Chill: 30°   Ceiling: 2200
Heat Index: 35°   Visibility: 10mi
Dew Point: 26°   Wind: 6mph
Humidity: 70%   Direction: NA
Pressure: 30.32"   Gusts: NA
Location:  40.7879°N, 74.0112°W
Report Text: KNYC 212211Z VRB05KT 10SM BKN022 OVC031 02/M03 A3032 RMK AO2 T00171033 $
Loading
Personal Weather Stations






























Interactive Weather Map New forecast layout! Learn more

10-Day Weather Forecast

Advertisements
Track Severe Weather on mobile